sensor_id;sensor_type;location;lat;lon;timestamp;P1;durP1;ratioP1;P2;durP2;ratioP2
26620;SDS011;14253;44.840;10.444;2022-07-23T00:02:07;7.93;;;6.07;;
26620;SDS011;14253;44.840;10.444;2022-07-23T00:04:33;12.05;;;6.22;;
26620;SDS011;14253;44.840;10.444;2022-07-23T00:06:59;10.98;;;6.10;;
26620;SDS011;14253;44.840;10.444;2022-07-23T00:09:25;8.23;;;5.95;;
26620;SDS011;14253;44.840;10.444;2022-07-23T00:11:51;11.40;;;6.25;;
26620;SDS011;14253;44.840;10.444;2022-07-23T00:14:17;8.98;;;5.63;;
26620;SDS011;14253;44.840;10.444;2022-07-23T00:16:43;11.82;;;5.78;;
26620;SDS011;14253;44.840;10.444;2022-07-23T00:19:09;10.13;;;6.60;;
26620;SDS011;14253;44.840;10.444;2022-07-23T00:21:35;7.63;;;6.03;;
26620;SDS011;14253;44.840;10.444;2022-07-23T00:24:01;10.05;;;5.80;;
26620;SDS011;14253;44.840;10.444;2022-07-23T00:26:27;8.45;;;5.75;;
26620;SDS011;14253;44.840;10.444;2022-07-23T00:28:53;10.82;;;6.65;;
26620;SDS011;14253;44.840;10.444;2022-07-23T00:31:19;10.40;;;7.32;;
26620;SDS011;14253;44.840;10.444;2022-07-23T00:33:45;10.00;;;6.22;;
26620;SDS011;14253;44.840;10.444;2022-07-23T00:36:11;9.40;;;6.68;;
26620;SDS011;14253;44.840;10.444;2022-07-23T00:38:37;9.77;;;6.45;;
26620;SDS011;14253;44.840;10.444;2022-07-23T00:41:03;8.20;;;6.07;;
26620;SDS011;14253;44.840;10.444;2022-07-23T00:43:29;8.90;;;7.15;;
26620;SDS011;14253;44.840;10.444;2022-07-23T00:45:55;7.32;;;6.20;;
26620;SDS011;14253;44.840;10.444;2022-07-23T00:48:21;10.63;;;6.05;;
26620;SDS011;14253;44.840;10.444;2022-07-23T00:50:47;7.97;;;5.90;;
26620;SDS011;14253;44.840;10.444;2022-07-23T00:53:13;7.95;;;6.45;;
26620;SDS011;14253;44.840;10.444;2022-07-23T00:55:41;9.85;;;6.40;;
26620;SDS011;14253;44.840;10.444;2022-07-23T00:58:07;11.10;;;6.15;;
26620;SDS011;14253;44.840;10.444;2022-07-23T01:00:34;8.45;;;6.45;;
26620;SDS011;14253;44.840;10.444;2022-07-23T01:03:00;9.02;;;7.07;;
26620;SDS011;14253;44.840;10.444;2022-07-23T01:05:26;10.25;;;6.63;;
26620;SDS011;14253;44.840;10.444;2022-07-23T01:07:52;13.13;;;7.18;;
26620;SDS011;14253;44.840;10.444;2022-07-23T01:10:19;9.73;;;6.68;;
26620;SDS011;14253;44.840;10.444;2022-07-23T01:13:07;8.48;;;6.88;;
26620;SDS011;14253;44.840;10.444;2022-07-23T01:15:36;10.07;;;6.97;;
26620;SDS011;14253;44.840;10.444;2022-07-23T01:18:04;9.77;;;6.25;;
26620;SDS011;14253;44.840;10.444;2022-07-23T01:20:31;10.18;;;6.55;;
26620;SDS011;14253;44.840;10.444;2022-07-23T01:22:58;10.38;;;6.22;;
26620;SDS011;14253;44.840;10.444;2022-07-23T01:25:24;13.50;;;5.93;;
26620;SDS011;14253;44.840;10.444;2022-07-23T01:27:56;7.50;;;5.93;;
26620;SDS011;14253;44.840;10.444;2022-07-23T01:30:22;7.53;;;6.07;;
26620;SDS011;14253;44.840;10.444;2022-07-23T01:32:49;9.43;;;6.30;;
26620;SDS011;14253;44.840;10.444;2022-07-23T01:35:15;7.38;;;5.72;;
26620;SDS011;14253;44.840;10.444;2022-07-23T01:37:42;8.23;;;6.07;;
26620;SDS011;14253;44.840;10.444;2022-07-23T01:40:09;10.85;;;6.13;;
26620;SDS011;14253;44.840;10.444;2022-07-23T01:42:36;7.93;;;5.70;;
26620;SDS011;14253;44.840;10.444;2022-07-23T01:45:03;12.50;;;6.25;;
26620;SDS011;14253;44.840;10.444;2022-07-23T01:47:30;8.23;;;5.90;;
26620;SDS011;14253;44.840;10.444;2022-07-23T01:49:57;8.07;;;5.68;;
26620;SDS011;14253;44.840;10.444;2022-07-23T01:52:52;7.47;;;5.85;;
26620;SDS011;14253;44.840;10.444;2022-07-23T01:55:18;9.43;;;5.80;;
26620;SDS011;14253;44.840;10.444;2022-07-23T01:57:45;8.30;;;5.80;;
26620;SDS011;14253;44.840;10.444;2022-07-23T02:00:12;9.85;;;6.05;;
26620;SDS011;14253;44.840;10.444;2022-07-23T02:02:38;7.85;;;5.32;;
26620;SDS011;14253;44.840;10.444;2022-07-23T02:05:05;6.13;;;5.50;;
26620;SDS011;14253;44.840;10.444;2022-07-23T02:07:31;9.20;;;5.82;;
26620;SDS011;14253;44.840;10.444;2022-07-23T02:10:00;9.82;;;6.30;;
26620;SDS011;14253;44.840;10.444;2022-07-23T02:12:26;11.45;;;5.82;;
26620;SDS011;14253;44.840;10.444;2022-07-23T02:14:52;14.02;;;5.78;;
26620;SDS011;14253;44.840;10.444;2022-07-23T02:17:18;9.75;;;5.97;;
26620;SDS011;14253;44.840;10.444;2022-07-23T02:19:44;10.68;;;5.90;;
26620;SDS011;14253;44.840;10.444;2022-07-23T02:22:10;9.32;;;6.05;;
26620;SDS011;14253;44.840;10.444;2022-07-23T02:24:35;10.30;;;5.22;;
26620;SDS011;14253;44.840;10.444;2022-07-23T02:27:01;7.57;;;5.13;;
26620;SDS011;14253;44.840;10.444;2022-07-23T02:29:28;8.02;;;5.57;;
26620;SDS011;14253;44.840;10.444;2022-07-23T02:31:54;8.55;;;5.35;;
26620;SDS011;14253;44.840;10.444;2022-07-23T02:34:21;8.13;;;5.32;;
26620;SDS011;14253;44.840;10.444;2022-07-23T02:36:47;6.30;;;5.60;;
26620;SDS011;14253;44.840;10.444;2022-07-23T02:39:13;9.05;;;6.18;;
26620;SDS011;14253;44.840;10.444;2022-07-23T02:41:39;7.82;;;6.18;;
26620;SDS011;14253;44.840;10.444;2022-07-23T02:44:06;9.48;;;5.85;;
26620;SDS011;14253;44.840;10.444;2022-07-23T02:46:32;8.82;;;5.40;;
26620;SDS011;14253;44.840;10.444;2022-07-23T02:49:00;9.40;;;5.43;;
26620;SDS011;14253;44.840;10.444;2022-07-23T02:51:26;9.43;;;5.88;;
26620;SDS011;14253;44.840;10.444;2022-07-23T02:53:57;10.50;;;5.75;;
26620;SDS011;14253;44.840;10.444;2022-07-23T02:56:23;9.25;;;5.53;;
26620;SDS011;14253;44.840;10.444;2022-07-23T02:58:48;6.28;;;5.15;;
26620;SDS011;14253;44.840;10.444;2022-07-23T03:01:15;9.75;;;6.38;;
26620;SDS011;14253;44.840;10.444;2022-07-23T03:03:41;10.73;;;6.45;;
26620;SDS011;14253;44.840;10.444;2022-07-23T03:06:07;8.70;;;6.20;;
26620;SDS011;14253;44.840;10.444;2022-07-23T03:08:34;8.25;;;5.40;;
26620;SDS011;14253;44.840;10.444;2022-07-23T03:11:00;11.52;;;5.72;;
26620;SDS011;14253;44.840;10.444;2022-07-23T03:13:26;9.52;;;5.45;;
26620;SDS011;14253;44.840;10.444;2022-07-23T03:15:53;8.60;;;5.15;;
26620;SDS011;14253;44.840;10.444;2022-07-23T03:18:19;9.50;;;5.53;;
26620;SDS011;14253;44.840;10.444;2022-07-23T03:20:45;7.75;;;5.50;;
26620;SDS011;14253;44.840;10.444;2022-07-23T03:23:11;11.70;;;6.35;;
26620;SDS011;14253;44.840;10.444;2022-07-23T03:25:37;10.02;;;6.22;;
26620;SDS011;14253;44.840;10.444;2022-07-23T03:28:03;9.90;;;5.65;;
26620;SDS011;14253;44.840;10.444;2022-07-23T03:30:30;8.80;;;6.32;;
26620;SDS011;14253;44.840;10.444;2022-07-23T03:32:56;8.57;;;5.90;;
26620;SDS011;14253;44.840;10.444;2022-07-23T03:35:22;12.75;;;6.38;;
26620;SDS011;14253;44.840;10.444;2022-07-23T03:38:03;15.40;;;5.93;;
26620;SDS011;14253;44.840;10.444;2022-07-23T03:40:29;13.30;;;6.80;;
26620;SDS011;14253;44.840;10.444;2022-07-23T03:42:56;28.23;;;7.15;;
26620;SDS011;14253;44.840;10.444;2022-07-23T03:45:22;21.20;;;6.88;;
26620;SDS011;14253;44.840;10.444;2022-07-23T03:47:48;19.77;;;6.93;;
26620;SDS011;14253;44.840;10.444;2022-07-23T03:50:14;18.33;;;7.10;;
26620;SDS011;14253;44.840;10.444;2022-07-23T03:52:40;25.30;;;7.13;;
26620;SDS011;14253;44.840;10.444;2022-07-23T03:55:06;14.88;;;6.43;;
26620;SDS011;14253;44.840;10.444;2022-07-23T03:57:34;17.42;;;7.00;;
26620;SDS011;14253;44.840;10.444;2022-07-23T04:00:00;10.52;;;6.03;;
26620;SDS011;14253;44.840;10.444;2022-07-23T04:02:26;9.90;;;5.80;;
26620;SDS011;14253;44.840;10.444;2022-07-23T04:04:53;16.95;;;6.68;;
26620;SDS011;14253;44.840;10.444;2022-07-23T04:07:19;11.75;;;5.32;;
26620;SDS011;14253;44.840;10.444;2022-07-23T04:09:47;10.20;;;5.68;;
26620;SDS011;14253;44.840;10.444;2022-07-23T04:12:13;11.65;;;5.68;;
26620;SDS011;14253;44.840;10.444;2022-07-23T04:14:40;10.52;;;6.72;;
26620;SDS011;14253;44.840;10.444;2022-07-23T04:17:06;9.43;;;6.13;;
26620;SDS011;14253;44.840;10.444;2022-07-23T04:19:32;9.18;;;6.40;;
26620;SDS011;14253;44.840;10.444;2022-07-23T04:22:04;11.52;;;6.20;;
26620;SDS011;14253;44.840;10.444;2022-07-23T04:24:33;12.32;;;7.07;;
26620;SDS011;14253;44.840;10.444;2022-07-23T04:27:00;11.52;;;7.63;;
26620;SDS011;14253;44.840;10.444;2022-07-23T04:29:26;10.25;;;6.45;;
26620;SDS011;14253;44.840;10.444;2022-07-23T04:31:52;8.57;;;5.80;;
26620;SDS011;14253;44.840;10.444;2022-07-23T04:34:18;7.70;;;5.90;;
26620;SDS011;14253;44.840;10.444;2022-07-23T04:36:44;10.15;;;6.57;;
26620;SDS011;14253;44.840;10.444;2022-07-23T04:39:11;9.20;;;6.60;;
26620;SDS011;14253;44.840;10.444;2022-07-23T04:41:37;12.55;;;6.85;;
26620;SDS011;14253;44.840;10.444;2022-07-23T04:44:03;12.35;;;6.97;;
26620;SDS011;14253;44.840;10.444;2022-07-23T04:46:30;15.80;;;7.40;;
26620;SDS011;14253;44.840;10.444;2022-07-23T04:48:56;16.45;;;8.10;;
26620;SDS011;14253;44.840;10.444;2022-07-23T04:51:22;15.18;;;7.45;;
26620;SDS011;14253;44.840;10.444;2022-07-23T04:53:48;12.20;;;6.85;;
26620;SDS011;14253;44.840;10.444;2022-07-23T04:56:15;11.25;;;6.85;;
26620;SDS011;14253;44.840;10.444;2022-07-23T04:58:41;15.75;;;6.22;;
26620;SDS011;14253;44.840;10.444;2022-07-23T05:01:08;12.30;;;7.97;;
26620;SDS011;14253;44.840;10.444;2022-07-23T05:03:35;16.08;;;10.20;;
26620;SDS011;14253;44.840;10.444;2022-07-23T05:06:01;20.23;;;9.85;;
26620;SDS011;14253;44.840;10.444;2022-07-23T05:08:28;17.27;;;10.18;;
26620;SDS011;14253;44.840;10.444;2022-07-23T05:10:57;16.30;;;9.07;;
26620;SDS011;14253;44.840;10.444;2022-07-23T05:13:23;16.77;;;8.82;;
26620;SDS011;14253;44.840;10.444;2022-07-23T05:15:52;13.90;;;8.88;;
26620;SDS011;14253;44.840;10.444;2022-07-23T05:18:19;14.27;;;8.18;;
26620;SDS011;14253;44.840;10.444;2022-07-23T05:20:49;20.58;;;8.50;;
26620;SDS011;14253;44.840;10.444;2022-07-23T05:23:28;13.65;;;8.05;;
26620;SDS011;14253;44.840;10.444;2022-07-23T05:25:54;12.90;;;7.82;;
26620;SDS011;14253;44.840;10.444;2022-07-23T05:28:21;16.05;;;8.18;;
26620;SDS011;14253;44.840;10.444;2022-07-23T05:30:47;17.27;;;7.63;;
26620;SDS011;14253;44.840;10.444;2022-07-23T05:33:17;12.93;;;6.50;;
26620;SDS011;14253;44.840;10.444;2022-07-23T05:35:44;10.60;;;6.03;;
26620;SDS011;14253;44.840;10.444;2022-07-23T05:38:25;10.43;;;5.93;;
26620;SDS011;14253;44.840;10.444;2022-07-23T05:40:52;9.15;;;5.03;;
26620;SDS011;14253;44.840;10.444;2022-07-23T05:43:19;16.70;;;6.80;;
26620;SDS011;14253;44.840;10.444;2022-07-23T05:45:45;12.43;;;6.78;;
26620;SDS011;14253;44.840;10.444;2022-07-23T05:48:11;16.75;;;7.15;;
26620;SDS011;14253;44.840;10.444;2022-07-23T05:50:47;17.75;;;7.05;;
26620;SDS011;14253;44.840;10.444;2022-07-23T05:53:23;13.88;;;6.28;;
26620;SDS011;14253;44.840;10.444;2022-07-23T05:55:59;13.73;;;5.88;;
26620;SDS011;14253;44.840;10.444;2022-07-23T05:58:26;14.38;;;5.80;;
26620;SDS011;14253;44.840;10.444;2022-07-23T06:00:52;22.35;;;7.57;;
26620;SDS011;14253;44.840;10.444;2022-07-23T06:03:18;23.20;;;6.88;;
26620;SDS011;14253;44.840;10.444;2022-07-23T06:05:45;22.15;;;6.68;;
26620;SDS011;14253;44.840;10.444;2022-07-23T06:08:11;13.07;;;7.20;;
26620;SDS011;14253;44.840;10.444;2022-07-23T06:10:37;12.30;;;7.88;;
26620;SDS011;14253;44.840;10.444;2022-07-23T06:13:03;20.05;;;7.82;;
26620;SDS011;14253;44.840;10.444;2022-07-23T06:15:30;26.52;;;9.68;;
26620;SDS011;14253;44.840;10.444;2022-07-23T06:17:56;17.90;;;9.98;;
26620;SDS011;14253;44.840;10.444;2022-07-23T06:20:23;15.65;;;8.50;;
26620;SDS011;14253;44.840;10.444;2022-07-23T06:22:49;16.90;;;9.15;;
26620;SDS011;14253;44.840;10.444;2022-07-23T06:25:14;30.92;;;10.88;;
26620;SDS011;14253;44.840;10.444;2022-07-23T06:27:43;22.67;;;10.65;;
26620;SDS011;14253;44.840;10.444;2022-07-23T06:30:11;28.85;;;11.55;;
26620;SDS011;14253;44.840;10.444;2022-07-23T06:32:37;22.65;;;9.82;;
26620;SDS011;14253;44.840;10.444;2022-07-23T06:35:03;18.13;;;9.07;;
26620;SDS011;14253;44.840;10.444;2022-07-23T06:37:29;15.48;;;8.00;;
26620;SDS011;14253;44.840;10.444;2022-07-23T06:39:55;15.77;;;8.35;;
26620;SDS011;14253;44.840;10.444;2022-07-23T06:42:22;15.73;;;8.35;;
26620;SDS011;14253;44.840;10.444;2022-07-23T06:44:55;15.43;;;8.20;;
26620;SDS011;14253;44.840;10.444;2022-07-23T06:47:21;14.73;;;7.97;;
26620;SDS011;14253;44.840;10.444;2022-07-23T06:49:47;36.17;;;16.35;;
26620;SDS011;14253;44.840;10.444;2022-07-23T06:52:13;29.73;;;15.20;;
26620;SDS011;14253;44.840;10.444;2022-07-23T06:54:39;37.67;;;20.58;;
26620;SDS011;14253;44.840;10.444;2022-07-23T06:57:06;19.17;;;12.95;;
26620;SDS011;14253;44.840;10.444;2022-07-23T06:59:32;22.30;;;8.18;;
26620;SDS011;14253;44.840;10.444;2022-07-23T07:02:01;11.80;;;6.53;;
26620;SDS011;14253;44.840;10.444;2022-07-23T07:04:27;13.13;;;5.70;;
26620;SDS011;14253;44.840;10.444;2022-07-23T07:06:53;10.85;;;5.38;;
26620;SDS011;14253;44.840;10.444;2022-07-23T07:09:19;11.15;;;5.25;;
26620;SDS011;14253;44.840;10.444;2022-07-23T07:11:45;11.68;;;5.15;;
26620;SDS011;14253;44.840;10.444;2022-07-23T07:14:11;9.35;;;4.85;;
26620;SDS011;14253;44.840;10.444;2022-07-23T07:16:37;7.45;;;4.90;;
26620;SDS011;14253;44.840;10.444;2022-07-23T07:19:03;7.07;;;4.32;;
26620;SDS011;14253;44.840;10.444;2022-07-23T07:21:29;15.68;;;4.90;;
26620;SDS011;14253;44.840;10.444;2022-07-23T07:23:55;11.40;;;5.47;;
26620;SDS011;14253;44.840;10.444;2022-07-23T07:26:21;16.13;;;6.50;;
26620;SDS011;14253;44.840;10.444;2022-07-23T07:28:47;9.98;;;5.93;;
26620;SDS011;14253;44.840;10.444;2022-07-23T07:31:13;10.00;;;5.57;;
26620;SDS011;14253;44.840;10.444;2022-07-23T07:33:39;10.10;;;5.32;;
26620;SDS011;14253;44.840;10.444;2022-07-23T07:36:06;10.13;;;6.55;;
26620;SDS011;14253;44.840;10.444;2022-07-23T07:38:32;13.65;;;7.28;;
26620;SDS011;14253;44.840;10.444;2022-07-23T07:40:58;11.65;;;7.90;;
26620;SDS011;14253;44.840;10.444;2022-07-23T07:43:24;15.05;;;8.00;;
26620;SDS011;14253;44.840;10.444;2022-07-23T07:45:50;11.55;;;8.25;;
26620;SDS011;14253;44.840;10.444;2022-07-23T07:48:16;19.73;;;8.82;;
26620;SDS011;14253;44.840;10.444;2022-07-23T07:50:42;12.35;;;7.95;;
26620;SDS011;14253;44.840;10.444;2022-07-23T07:53:08;18.40;;;9.32;;
26620;SDS011;14253;44.840;10.444;2022-07-23T07:55:35;12.00;;;8.02;;
26620;SDS011;14253;44.840;10.444;2022-07-23T07:58:01;15.48;;;8.45;;
26620;SDS011;14253;44.840;10.444;2022-07-23T08:00:27;11.27;;;8.23;;
26620;SDS011;14253;44.840;10.444;2022-07-23T08:02:54;11.25;;;8.55;;
26620;SDS011;14253;44.840;10.444;2022-07-23T08:05:21;13.32;;;9.93;;
26620;SDS011;14253;44.840;10.444;2022-07-23T08:07:52;13.15;;;9.68;;
26620;SDS011;14253;44.840;10.444;2022-07-23T08:10:19;17.80;;;8.98;;
26620;SDS011;14253;44.840;10.444;2022-07-23T08:12:46;13.32;;;8.85;;
26620;SDS011;14253;44.840;10.444;2022-07-23T08:15:17;14.05;;;8.40;;
26620;SDS011;14253;44.840;10.444;2022-07-23T08:17:44;13.43;;;8.45;;
26620;SDS011;14253;44.840;10.444;2022-07-23T08:20:13;11.70;;;8.90;;
26620;SDS011;14253;44.840;10.444;2022-07-23T08:25:13;13.23;;;8.18;;
26620;SDS011;14253;44.840;10.444;2022-07-23T08:27:40;13.95;;;7.90;;
26620;SDS011;14253;44.840;10.444;2022-07-23T08:30:06;18.48;;;8.52;;
26620;SDS011;14253;44.840;10.444;2022-07-23T08:32:33;16.00;;;9.38;;
26620;SDS011;14253;44.840;10.444;2022-07-23T08:35:16;13.02;;;8.02;;
26620;SDS011;14253;44.840;10.444;2022-07-23T08:37:42;12.60;;;8.27;;
26620;SDS011;14253;44.840;10.444;2022-07-23T08:40:08;15.13;;;9.38;;
26620;SDS011;14253;44.840;10.444;2022-07-23T08:42:35;14.63;;;8.20;;
26620;SDS011;14253;44.840;10.444;2022-07-23T08:45:02;18.17;;;6.75;;
26620;SDS011;14253;44.840;10.444;2022-07-23T08:47:29;10.75;;;7.00;;
26620;SDS011;14253;44.840;10.444;2022-07-23T08:49:56;13.10;;;6.50;;
26620;SDS011;14253;44.840;10.444;2022-07-23T08:52:24;10.27;;;6.80;;
26620;SDS011;14253;44.840;10.444;2022-07-23T08:54:51;10.95;;;6.47;;
26620;SDS011;14253;44.840;10.444;2022-07-23T08:57:18;10.43;;;6.47;;
26620;SDS011;14253;44.840;10.444;2022-07-23T08:59:44;9.07;;;6.95;;
26620;SDS011;14253;44.840;10.444;2022-07-23T09:02:10;11.88;;;7.57;;
26620;SDS011;14253;44.840;10.444;2022-07-23T09:04:37;14.10;;;8.05;;
26620;SDS011;14253;44.840;10.444;2022-07-23T09:07:03;11.98;;;8.25;;
26620;SDS011;14253;44.840;10.444;2022-07-23T09:09:29;13.13;;;7.82;;
26620;SDS011;14253;44.840;10.444;2022-07-23T09:12:03;12.18;;;7.47;;
26620;SDS011;14253;44.840;10.444;2022-07-23T09:17:14;12.48;;;7.95;;
26620;SDS011;14253;44.840;10.444;2022-07-23T09:19:42;14.98;;;8.80;;
26620;SDS011;14253;44.840;10.444;2022-07-23T09:22:29;19.65;;;9.18;;
26620;SDS011;14253;44.840;10.444;2022-07-23T09:25:11;12.48;;;8.23;;
26620;SDS011;14253;44.840;10.444;2022-07-23T09:27:58;10.18;;;7.82;;
26620;SDS011;14253;44.840;10.444;2022-07-23T09:30:29;11.27;;;7.25;;
26620;SDS011;14253;44.840;10.444;2022-07-23T09:33:05;16.27;;;7.57;;
26620;SDS011;14253;44.840;10.444;2022-07-23T09:38:18;17.08;;;8.30;;
26620;SDS011;14253;44.840;10.444;2022-07-23T09:40:45;13.02;;;7.55;;
26620;SDS011;14253;44.840;10.444;2022-07-23T09:43:29;13.00;;;7.50;;
26620;SDS011;14253;44.840;10.444;2022-07-23T09:46:16;12.95;;;7.63;;
26620;SDS011;14253;44.840;10.444;2022-07-23T09:48:42;13.82;;;6.93;;
26620;SDS011;14253;44.840;10.444;2022-07-23T09:51:08;12.15;;;7.35;;
26620;SDS011;14253;44.840;10.444;2022-07-23T09:53:34;11.35;;;6.50;;
26620;SDS011;14253;44.840;10.444;2022-07-23T09:55:59;12.07;;;6.18;;
26620;SDS011;14253;44.840;10.444;2022-07-23T09:58:26;9.38;;;6.88;;
26620;SDS011;14253;44.840;10.444;2022-07-23T10:00:53;9.75;;;6.22;;
26620;SDS011;14253;44.840;10.444;2022-07-23T10:03:21;14.43;;;7.10;;
26620;SDS011;14253;44.840;10.444;2022-07-23T10:06:08;14.25;;;7.97;;
26620;SDS011;14253;44.840;10.444;2022-07-23T10:08:53;7.68;;;5.80;;
26620;SDS011;14253;44.840;10.444;2022-07-23T10:11:56;11.05;;;5.93;;
26620;SDS011;14253;44.840;10.444;2022-07-23T10:14:53;9.45;;;6.30;;
26620;SDS011;14253;44.840;10.444;2022-07-23T10:17:19;17.05;;;7.38;;
26620;SDS011;14253;44.840;10.444;2022-07-23T10:19:45;9.60;;;6.22;;
26620;SDS011;14253;44.840;10.444;2022-07-23T10:22:12;9.23;;;6.30;;
26620;SDS011;14253;44.840;10.444;2022-07-23T10:37:53;12.50;;;6.60;;
26620;SDS011;14253;44.840;10.444;2022-07-23T10:40:22;7.97;;;5.70;;
26620;SDS011;14253;44.840;10.444;2022-07-23T10:42:49;13.65;;;6.10;;
26620;SDS011;14253;44.840;10.444;2022-07-23T10:53:07;11.52;;;5.78;;
26620;SDS011;14253;44.840;10.444;2022-07-23T10:57:59;7.75;;;5.78;;
26620;SDS011;14253;44.840;10.444;2022-07-23T11:00:27;13.38;;;5.60;;
26620;SDS011;14253;44.840;10.444;2022-07-23T11:02:56;12.57;;;6.10;;
26620;SDS011;14253;44.840;10.444;2022-07-23T11:05:39;11.60;;;6.20;;
26620;SDS011;14253;44.840;10.444;2022-07-23T11:32:00;8.52;;;5.45;;
26620;SDS011;14253;44.840;10.444;2022-07-23T11:36:56;11.68;;;5.20;;
26620;SDS011;14253;44.840;10.444;2022-07-23T11:39:22;10.60;;;6.03;;
26620;SDS011;14253;44.840;10.444;2022-07-23T11:41:51;8.00;;;5.75;;
26620;SDS011;14253;44.840;10.444;2022-07-23T11:44:24;8.85;;;5.50;;
26620;SDS011;14253;44.840;10.444;2022-07-23T11:46:56;9.85;;;5.30;;
26620;SDS011;14253;44.840;10.444;2022-07-23T11:49:24;7.53;;;5.28;;
26620;SDS011;14253;44.840;10.444;2022-07-23T11:52:03;11.85;;;5.88;;
26620;SDS011;14253;44.840;10.444;2022-07-23T11:54:30;9.20;;;5.53;;
26620;SDS011;14253;44.840;10.444;2022-07-23T11:56:58;11.30;;;5.60;;
26620;SDS011;14253;44.840;10.444;2022-07-23T11:59:25;8.95;;;5.90;;
26620;SDS011;14253;44.840;10.444;2022-07-23T12:01:57;13.48;;;6.85;;
26620;SDS011;14253;44.840;10.444;2022-07-23T12:04:38;9.68;;;5.30;;
26620;SDS011;14253;44.840;10.444;2022-07-23T12:09:57;7.85;;;5.97;;
26620;SDS011;14253;44.840;10.444;2022-07-23T12:12:51;9.50;;;5.82;;
26620;SDS011;14253;44.840;10.444;2022-07-23T12:15:27;8.77;;;6.20;;
26620;SDS011;14253;44.840;10.444;2022-07-23T12:18:03;9.60;;;6.20;;
26620;SDS011;14253;44.840;10.444;2022-07-23T12:20:32;13.10;;;6.30;;
26620;SDS011;14253;44.840;10.444;2022-07-23T12:23:00;10.38;;;5.53;;
26620;SDS011;14253;44.840;10.444;2022-07-23T12:25:29;8.27;;;6.10;;
26620;SDS011;14253;44.840;10.444;2022-07-23T12:28:04;10.05;;;5.78;;
26620;SDS011;14253;44.840;10.444;2022-07-23T12:33:07;9.98;;;5.63;;
26620;SDS011;14253;44.840;10.444;2022-07-23T12:35:36;7.78;;;5.57;;
26620;SDS011;14253;44.840;10.444;2022-07-23T12:38:04;18.50;;;5.50;;
26620;SDS011;14253;44.840;10.444;2022-07-23T12:40:37;9.75;;;6.25;;
26620;SDS011;14253;44.840;10.444;2022-07-23T12:43:27;11.25;;;6.20;;
26620;SDS011;14253;44.840;10.444;2022-07-23T12:48:38;11.85;;;6.22;;
26620;SDS011;14253;44.840;10.444;2022-07-23T12:51:23;11.15;;;6.03;;
26620;SDS011;14253;44.840;10.444;2022-07-23T12:53:50;8.70;;;5.63;;
26620;SDS011;14253;44.840;10.444;2022-07-23T12:56:26;8.00;;;5.60;;
26620;SDS011;14253;44.840;10.444;2022-07-23T12:58:55;7.97;;;5.85;;
26620;SDS011;14253;44.840;10.444;2022-07-23T13:01:24;11.13;;;5.90;;
26620;SDS011;14253;44.840;10.444;2022-07-23T13:03:56;7.93;;;5.75;;
26620;SDS011;14253;44.840;10.444;2022-07-23T13:06:23;11.25;;;6.38;;
26620;SDS011;14253;44.840;10.444;2022-07-23T13:08:50;12.10;;;6.50;;
26620;SDS011;14253;44.840;10.444;2022-07-23T13:11:16;9.13;;;6.63;;
26620;SDS011;14253;44.840;10.444;2022-07-23T13:13:42;13.20;;;6.20;;
26620;SDS011;14253;44.840;10.444;2022-07-23T13:16:08;14.15;;;7.10;;
26620;SDS011;14253;44.840;10.444;2022-07-23T13:18:34;7.70;;;6.40;;
26620;SDS011;14253;44.840;10.444;2022-07-23T13:21:00;7.57;;;6.38;;
26620;SDS011;14253;44.840;10.444;2022-07-23T13:23:27;9.13;;;6.57;;
26620;SDS011;14253;44.840;10.444;2022-07-23T13:25:53;9.27;;;6.32;;
26620;SDS011;14253;44.840;10.444;2022-07-23T13:28:22;10.63;;;6.85;;
26620;SDS011;14253;44.840;10.444;2022-07-23T13:30:49;8.02;;;6.40;;
26620;SDS011;14253;44.840;10.444;2022-07-23T13:33:16;7.53;;;6.13;;
26620;SDS011;14253;44.840;10.444;2022-07-23T13:35:44;12.93;;;6.03;;
26620;SDS011;14253;44.840;10.444;2022-07-23T13:38:10;8.93;;;6.57;;
26620;SDS011;14253;44.840;10.444;2022-07-23T13:40:37;10.73;;;6.22;;
26620;SDS011;14253;44.840;10.444;2022-07-23T13:43:06;10.70;;;6.25;;
26620;SDS011;14253;44.840;10.444;2022-07-23T13:45:32;7.50;;;6.53;;
26620;SDS011;14253;44.840;10.444;2022-07-23T13:47:59;10.75;;;6.95;;
26620;SDS011;14253;44.840;10.444;2022-07-23T13:50:25;10.13;;;6.32;;
26620;SDS011;14253;44.840;10.444;2022-07-23T13:52:52;9.82;;;6.32;;
26620;SDS011;14253;44.840;10.444;2022-07-23T13:55:18;8.55;;;6.68;;
26620;SDS011;14253;44.840;10.444;2022-07-23T13:57:44;14.18;;;6.47;;
26620;SDS011;14253;44.840;10.444;2022-07-23T14:00:11;12.10;;;6.22;;
26620;SDS011;14253;44.840;10.444;2022-07-23T14:02:38;6.97;;;5.82;;
26620;SDS011;14253;44.840;10.444;2022-07-23T14:05:06;10.00;;;6.50;;
26620;SDS011;14253;44.840;10.444;2022-07-23T14:07:35;12.25;;;6.28;;
26620;SDS011;14253;44.840;10.444;2022-07-23T14:10:04;10.10;;;6.13;;
26620;SDS011;14253;44.840;10.444;2022-07-23T14:12:32;8.77;;;6.70;;
26620;SDS011;14253;44.840;10.444;2022-07-23T14:14:58;12.07;;;6.43;;
26620;SDS011;14253;44.840;10.444;2022-07-23T14:17:24;11.77;;;6.15;;
26620;SDS011;14253;44.840;10.444;2022-07-23T14:19:50;8.73;;;6.07;;
26620;SDS011;14253;44.840;10.444;2022-07-23T14:22:16;9.45;;;6.07;;
26620;SDS011;14253;44.840;10.444;2022-07-23T14:24:42;9.93;;;6.65;;
26620;SDS011;14253;44.840;10.444;2022-07-23T14:27:08;9.00;;;5.93;;
26620;SDS011;14253;44.840;10.444;2022-07-23T14:29:35;9.82;;;6.80;;
26620;SDS011;14253;44.840;10.444;2022-07-23T14:32:01;11.57;;;6.60;;
26620;SDS011;14253;44.840;10.444;2022-07-23T14:34:28;11.90;;;6.53;;
26620;SDS011;14253;44.840;10.444;2022-07-23T14:36:54;14.27;;;7.00;;
26620;SDS011;14253;44.840;10.444;2022-07-23T14:39:21;8.05;;;6.60;;
26620;SDS011;14253;44.840;10.444;2022-07-23T14:41:47;10.55;;;6.63;;
26620;SDS011;14253;44.840;10.444;2022-07-23T14:44:13;12.23;;;7.32;;
26620;SDS011;14253;44.840;10.444;2022-07-23T14:46:39;15.98;;;6.90;;
26620;SDS011;14253;44.840;10.444;2022-07-23T14:49:05;9.88;;;7.25;;
26620;SDS011;14253;44.840;10.444;2022-07-23T14:51:31;10.43;;;6.60;;
26620;SDS011;14253;44.840;10.444;2022-07-23T14:53:57;10.88;;;6.68;;
26620;SDS011;14253;44.840;10.444;2022-07-23T14:56:23;13.68;;;6.30;;
26620;SDS011;14253;44.840;10.444;2022-07-23T14:58:49;8.48;;;5.95;;
26620;SDS011;14253;44.840;10.444;2022-07-23T15:01:15;9.60;;;6.90;;
26620;SDS011;14253;44.840;10.444;2022-07-23T15:03:41;11.20;;;6.55;;
26620;SDS011;14253;44.840;10.444;2022-07-23T15:06:07;7.78;;;6.18;;
26620;SDS011;14253;44.840;10.444;2022-07-23T15:08:34;9.50;;;6.47;;
26620;SDS011;14253;44.840;10.444;2022-07-23T15:10:59;11.80;;;6.70;;
26620;SDS011;14253;44.840;10.444;2022-07-23T15:13:26;8.18;;;6.10;;
26620;SDS011;14253;44.840;10.444;2022-07-23T15:15:51;9.10;;;6.18;;
26620;SDS011;14253;44.840;10.444;2022-07-23T15:18:18;9.25;;;7.03;;
26620;SDS011;14253;44.840;10.444;2022-07-23T15:20:44;10.07;;;6.45;;
26620;SDS011;14253;44.840;10.444;2022-07-23T15:23:10;11.45;;;7.03;;
26620;SDS011;14253;44.840;10.444;2022-07-23T15:25:35;7.80;;;6.28;;
26620;SDS011;14253;44.840;10.444;2022-07-23T15:28:02;8.63;;;6.50;;
26620;SDS011;14253;44.840;10.444;2022-07-23T15:30:28;8.63;;;6.30;;
26620;SDS011;14253;44.840;10.444;2022-07-23T15:32:54;9.10;;;6.70;;
26620;SDS011;14253;44.840;10.444;2022-07-23T15:35:20;10.25;;;6.55;;
26620;SDS011;14253;44.840;10.444;2022-07-23T15:37:46;9.80;;;6.88;;